createdAt,value
2023-09-08T00:01:08.809Z,100295.22
2023-09-08T00:03:42.066Z,100296.94
2023-09-08T00:06:12.626Z,100304.19
2023-09-08T00:08:42.795Z,100297.78
2023-09-08T00:11:13.293Z,100303.47
2023-09-08T00:13:44.000Z,100308.75
2023-09-08T00:16:14.465Z,100312.84
2023-09-08T00:18:45.116Z,100308.63
2023-09-08T00:21:15.648Z,100313.69
2023-09-08T00:23:45.719Z,100297.41
2023-09-08T00:26:16.449Z,100308.81
2023-09-08T00:28:47.128Z,100307.28
2023-09-08T00:31:17.935Z,100307.28
2023-09-08T00:33:48.890Z,100311.69
2023-09-08T00:36:21.388Z,100319.38
2023-09-08T00:38:51.938Z,100322.50
2023-09-08T00:41:22.530Z,100330.03
2023-09-08T00:43:53.634Z,100310.78
2023-09-08T00:46:24.906Z,100325.19
2023-09-08T00:48:54.970Z,100325.97
2023-09-08T00:51:25.487Z,100318.06
2023-09-08T00:53:56.367Z,100318.00
2023-09-08T00:56:27.103Z,100323.84
2023-09-08T00:58:57.643Z,100333.59
2023-09-08T01:01:27.670Z,100332.06
2023-09-08T01:03:58.458Z,100348.19
2023-09-08T01:06:29.104Z,100337.94
2023-09-08T01:08:59.722Z,100339.56
2023-09-08T01:11:30.110Z,100344.94
2023-09-08T01:14:00.610Z,100343.91
2023-09-08T01:16:30.762Z,100347.13
2023-09-08T01:19:02.328Z,100343.41
2023-09-08T01:22:03.454Z,100360.50
2023-09-08T01:24:51.096Z,100353.81
2023-09-08T01:27:24.006Z,100366.06
2023-09-08T01:29:56.650Z,100362.63
2023-09-08T01:32:27.535Z,100371.63
2023-09-08T01:35:00.473Z,100374.94
2023-09-08T01:37:30.653Z,100397.75
2023-09-08T01:40:01.129Z,100406.63
2023-09-08T01:42:31.010Z,100420.50
2023-09-08T01:45:01.415Z,100431.06
2023-09-08T01:47:33.101Z,100429.91
2023-09-08T01:50:04.214Z,100439.34
2023-09-08T01:52:34.238Z,100443.78
2023-09-08T01:55:05.287Z,100450.53
2023-09-08T01:57:35.338Z,100455.03
2023-09-08T02:00:06.299Z,100467.13
2023-09-08T02:02:42.188Z,100486.72
2023-09-08T02:05:12.784Z,100502.72
2023-09-08T02:07:43.045Z,100499.25
2023-09-08T02:10:16.607Z,100503.06
2023-09-08T02:12:46.737Z,100497.00
2023-09-08T02:15:18.295Z,100519.53
2023-09-08T02:17:48.440Z,100527.41
2023-09-08T02:20:19.026Z,100546.41
2023-09-08T02:22:52.572Z,100533.84
2023-09-08T02:25:23.395Z,100540.84
2023-09-08T02:27:54.118Z,100543.81
2023-09-08T02:30:25.422Z,100555.25
2023-09-08T02:32:57.594Z,100567.22
2023-09-08T02:35:28.703Z,100566.72
2023-09-08T02:38:06.980Z,100577.66
2023-09-08T02:40:38.112Z,100583.22
2023-09-08T02:43:09.755Z,100604.81
2023-09-08T02:45:40.722Z,100614.63
2023-09-08T02:48:10.897Z,100627.50
2023-09-08T02:50:41.780Z,100618.06
2023-09-08T02:53:12.107Z,100620.91
2023-09-08T02:55:42.771Z,100629.81
2023-09-08T02:58:13.046Z,100628.78
2023-09-08T03:00:45.970Z,100629.13
2023-09-08T03:03:17.508Z,100629.84
2023-09-08T03:05:48.671Z,100623.44
2023-09-08T03:08:19.162Z,100629.28
2023-09-08T03:10:50.599Z,100639.97
2023-09-08T03:13:23.853Z,100664.56
2023-09-08T03:15:55.123Z,100671.88
2023-09-08T03:18:25.517Z,100637.69
2023-09-08T03:20:58.233Z,100607.94
2023-09-08T03:23:28.152Z,100614.88
2023-09-08T03:26:07.007Z,100627.91
2023-09-08T03:28:39.516Z,100608.66
2023-09-08T03:31:09.834Z,100587.69
2023-09-08T03:33:48.032Z,100581.63
2023-09-08T03:36:27.433Z,100591.25
2023-09-08T03:39:05.846Z,100599.41
2023-09-08T03:41:43.485Z,100606.34
2023-09-08T03:44:14.266Z,100606.88
2023-09-08T03:46:45.280Z,100601.72
2023-09-08T03:49:16.025Z,100610.44
2023-09-08T03:51:46.271Z,100596.38
2023-09-08T03:54:17.364Z,100610.28
2023-09-08T03:56:47.645Z,100622.19
2023-09-08T03:59:18.289Z,100627.38
2023-09-08T04:01:48.568Z,100619.38
2023-09-08T04:04:20.221Z,100615.78
2023-09-08T04:06:54.053Z,100587.50
2023-09-08T04:09:27.331Z,100600.31
2023-09-08T04:12:03.295Z,100599.75
2023-09-08T04:14:36.174Z,100608.84
2023-09-08T04:17:06.645Z,100628.09
2023-09-08T04:19:38.403Z,100656.41
2023-09-08T04:22:08.797Z,100643.19
2023-09-08T04:24:40.440Z,100677.19
2023-09-08T04:27:15.632Z,100700.53
2023-09-08T04:29:46.592Z,100679.53
2023-09-08T04:32:19.585Z,100673.66
2023-09-08T04:34:51.369Z,100689.34
2023-09-08T04:37:21.778Z,100716.38
2023-09-08T04:39:52.469Z,100737.00
2023-09-08T04:42:22.710Z,100748.16
2023-09-08T04:44:59.673Z,100739.81
2023-09-08T04:47:32.455Z,100730.72
2023-09-08T04:50:03.079Z,100716.50
2023-09-08T04:52:33.477Z,100715.78
2023-09-08T04:55:05.594Z,100707.41
2023-09-08T04:57:35.617Z,100700.09
2023-09-08T05:00:06.017Z,100697.97
2023-09-08T05:02:36.342Z,100702.06
2023-09-08T05:05:08.172Z,100703.66
2023-09-08T05:07:42.448Z,100707.25
2023-09-08T05:10:15.459Z,100705.47
2023-09-08T05:12:46.046Z,100692.47
2023-09-08T05:15:18.002Z,100695.50
2023-09-08T05:17:51.727Z,100696.72
2023-09-08T05:20:23.362Z,100692.84
2023-09-08T05:22:54.872Z,100692.09
2023-09-08T05:25:25.885Z,100682.47
2023-09-08T05:27:56.396Z,100676.16
2023-09-08T05:30:30.423Z,100672.41
2023-09-08T05:33:01.415Z,100673.25
2023-09-08T05:35:37.951Z,100670.06
2023-09-08T05:38:18.764Z,100657.78
2023-09-08T05:40:48.928Z,100648.13
2023-09-08T05:43:22.251Z,100640.88
2023-09-08T05:45:59.054Z,100630.91
2023-09-08T05:48:30.617Z,100628.75
2023-09-08T05:51:10.954Z,100633.59
2023-09-08T05:53:43.033Z,100624.53
2023-09-08T05:56:17.755Z,100621.47
2023-09-08T05:58:54.867Z,100623.09
2023-09-08T06:01:26.680Z,100624.13
2023-09-08T06:03:57.675Z,100632.53
2023-09-08T06:06:34.014Z,100617.91
2023-09-08T06:09:10.924Z,100608.50
2023-09-08T06:11:41.298Z,100613.28
2023-09-08T06:14:14.760Z,100606.75
2023-09-08T06:17:13.275Z,100618.69
2023-09-08T06:19:44.646Z,100625.28
2023-09-08T06:22:19.435Z,100621.63
2023-09-08T06:24:50.709Z,100633.53
2023-09-08T06:27:24.873Z,100617.72
2023-09-08T06:29:58.064Z,100607.03
2023-09-08T06:32:28.645Z,100602.56
2023-09-08T06:35:04.478Z,100598.78
2023-09-08T06:37:39.734Z,100567.63
2023-09-08T06:40:14.568Z,100573.28
2023-09-08T06:42:45.090Z,100577.00
2023-09-08T06:45:29.542Z,100561.88
2023-09-08T06:48:02.701Z,100547.31
2023-09-08T06:50:37.777Z,100528.97
2023-09-08T06:53:08.163Z,100519.25
2023-09-08T06:55:38.859Z,100507.66
2023-09-08T06:58:09.694Z,100491.53
2023-09-08T07:00:40.954Z,100479.94
2023-09-08T07:03:11.901Z,100467.16
2023-09-08T07:05:42.941Z,100452.06
2023-09-08T07:08:14.216Z,100465.59
2023-09-08T07:10:45.680Z,100460.44
2023-09-08T07:13:15.806Z,100457.22
2023-09-08T07:15:46.334Z,100464.88
2023-09-08T07:18:16.606Z,100444.94
2023-09-08T07:20:53.835Z,100445.50
2023-09-08T07:23:24.684Z,100434.84
2023-09-08T07:25:55.745Z,100398.34
2023-09-08T07:28:29.521Z,100406.47
2023-09-08T07:31:07.443Z,100396.69
2023-09-08T07:33:40.876Z,100396.69
2023-09-08T07:36:12.279Z,100392.59
2023-09-08T07:38:43.584Z,100393.09
2023-09-08T07:41:14.855Z,100403.94
2023-09-08T07:43:47.180Z,100410.34
2023-09-08T07:46:21.562Z,100391.81
2023-09-08T07:48:55.289Z,100403.59
2023-09-08T07:51:25.828Z,100397.34
2023-09-08T07:53:58.720Z,100380.63
2023-09-08T07:56:29.288Z,100398.97
2023-09-08T07:58:59.877Z,100428.16
2023-09-08T08:01:30.750Z,100434.72
2023-09-08T08:04:01.218Z,100429.41
2023-09-08T08:06:32.904Z,100434.38
2023-09-08T08:09:03.490Z,100437.41
2023-09-08T08:11:34.331Z,100447.00
2023-09-08T08:14:04.838Z,100455.22
2023-09-08T08:16:35.899Z,100456.13
2023-09-08T08:19:09.283Z,100447.94
2023-09-08T08:21:44.584Z,100429.22
2023-09-08T08:24:14.661Z,100405.72
2023-09-08T08:26:45.112Z,100387.75
2023-09-08T08:29:15.352Z,100375.75
2023-09-08T08:31:45.985Z,100369.28
2023-09-08T08:34:16.889Z,100369.25
2023-09-08T08:36:47.497Z,100384.41
2023-09-08T08:39:18.296Z,100373.69
2023-09-08T08:41:48.965Z,100363.88
2023-09-08T08:44:24.069Z,100327.50
2023-09-08T08:46:56.974Z,100287.13
2023-09-08T08:49:27.538Z,100260.31
2023-09-08T08:52:00.548Z,100234.38
2023-09-08T08:54:31.262Z,100236.03
2023-09-08T08:57:06.386Z,100218.31
2023-09-08T08:59:38.276Z,100181.59
2023-09-08T09:02:10.800Z,100184.00
2023-09-08T09:04:44.887Z,100205.22
2023-09-08T09:07:23.924Z,100180.59
2023-09-08T09:09:55.313Z,100171.59
2023-09-08T09:12:29.434Z,100192.66
2023-09-08T09:15:02.586Z,100171.34
2023-09-08T09:17:41.929Z,100154.75
2023-09-08T09:20:20.123Z,100135.38
2023-09-08T09:22:53.689Z,100177.16
2023-09-08T09:25:29.689Z,100216.41
2023-09-08T09:28:02.356Z,100209.22
2023-09-08T09:30:50.832Z,100185.78
2023-09-08T09:33:21.640Z,100163.91
2023-09-08T09:35:55.789Z,100179.28
2023-09-08T09:38:31.208Z,100164.88
2023-09-08T09:41:02.132Z,100147.94
2023-09-08T09:43:33.493Z,100155.84
2023-09-08T09:46:04.876Z,100082.53
2023-09-08T09:48:36.062Z,100140.53
2023-09-08T09:51:25.991Z,100189.25
2023-09-08T09:53:58.080Z,100200.00
2023-09-08T09:56:29.397Z,100218.53
2023-09-08T09:59:00.727Z,100204.13
2023-09-08T10:01:32.603Z,100239.72
2023-09-08T10:04:03.012Z,100245.22
2023-09-08T10:06:38.328Z,100262.31
2023-09-08T10:09:27.881Z,100278.28
2023-09-08T10:12:05.669Z,100283.06
2023-09-08T10:14:38.946Z,100272.00
2023-09-08T10:17:23.248Z,100284.25
2023-09-08T10:19:56.767Z,100285.91
2023-09-08T10:22:32.512Z,100315.56
2023-09-08T10:25:08.619Z,100334.03
2023-09-08T10:27:40.186Z,100308.88
2023-09-08T10:30:12.148Z,100322.16
2023-09-08T10:32:43.886Z,100343.28
2023-09-08T10:35:14.561Z,100355.13
2023-09-08T10:37:44.689Z,100371.34
2023-09-08T10:40:25.258Z,100369.06
2023-09-08T10:43:14.078Z,100392.84
2023-09-08T10:45:44.042Z,100395.75
2023-09-08T10:48:15.537Z,100420.16
2023-09-08T10:50:45.995Z,100426.03
2023-09-08T10:53:20.649Z,100435.09
2023-09-08T10:58:39.370Z,100462.00
2023-09-08T11:01:09.920Z,100461.41
2023-09-08T11:03:40.561Z,100462.09
2023-09-08T11:06:14.388Z,100479.44
2023-09-08T11:08:46.479Z,100485.34
2023-09-08T11:11:18.691Z,100498.28
2023-09-08T11:13:49.220Z,100509.84
2023-09-08T11:16:23.779Z,100509.34
2023-09-08T11:18:54.768Z,100511.34
2023-09-08T11:21:24.856Z,100502.94
2023-09-08T11:23:55.514Z,100527.41
2023-09-08T11:26:26.627Z,100538.97
2023-09-08T11:28:57.314Z,100523.25
2023-09-08T11:31:27.353Z,100531.78
2023-09-08T11:33:58.562Z,100530.56
2023-09-08T11:36:28.763Z,100542.25
2023-09-08T11:38:59.445Z,100530.88
2023-09-08T11:41:31.099Z,100555.03
2023-09-08T11:44:01.759Z,100549.63
2023-09-08T11:46:32.602Z,100550.16
2023-09-08T11:49:03.318Z,100570.22
2023-09-08T11:51:33.526Z,100547.00
2023-09-08T11:54:04.526Z,100553.72
2023-09-08T11:56:36.077Z,100575.69
2023-09-08T11:59:07.224Z,100582.56
2023-09-08T12:01:38.358Z,100573.81
2023-09-08T12:04:08.960Z,100585.72
2023-09-08T12:06:39.063Z,100597.31
2023-09-08T12:09:10.571Z,100604.00
2023-09-08T12:11:44.815Z,100600.09
2023-09-08T12:14:16.644Z,100594.75
2023-09-08T12:16:46.940Z,100572.50
2023-09-08T12:19:33.635Z,100569.09
2023-09-08T12:22:05.362Z,100580.13
2023-09-08T12:25:11.280Z,100592.34
2023-09-08T12:27:40.941Z,100594.31
2023-09-08T12:30:12.034Z,100601.72
2023-09-08T12:32:42.109Z,100617.69
2023-09-08T12:35:12.491Z,100617.22
2023-09-08T12:37:42.508Z,100613.59
2023-09-08T12:40:13.495Z,100604.91
2023-09-08T12:42:45.481Z,100611.91
2023-09-08T12:45:19.299Z,100616.81
2023-09-08T12:47:49.355Z,100624.22
2023-09-08T12:50:20.469Z,100628.09
2023-09-08T12:52:51.490Z,100644.28
2023-09-08T12:55:22.238Z,100660.75
2023-09-08T12:57:56.872Z,100651.31
2023-09-08T13:00:27.702Z,100637.31
2023-09-08T13:02:58.278Z,100642.03
2023-09-08T13:05:29.612Z,100657.84
2023-09-08T13:07:59.700Z,100664.53
2023-09-08T13:10:30.381Z,100666.28
2023-09-08T13:13:00.636Z,100674.47
2023-09-08T13:15:31.166Z,100673.34
2023-09-08T13:18:01.178Z,100674.00
2023-09-08T13:20:31.929Z,100660.28
2023-09-08T13:23:02.011Z,100647.34
2023-09-08T13:25:32.487Z,100630.72
2023-09-08T13:28:02.614Z,100641.72
2023-09-08T13:30:33.073Z,100649.69
2023-09-08T13:33:03.307Z,100652.38
2023-09-08T13:35:33.861Z,100663.19
2023-09-08T13:38:05.366Z,100676.81
2023-09-08T13:40:35.920Z,100679.84
2023-09-08T13:43:06.201Z,100665.97
2023-09-08T13:45:36.648Z,100661.84
2023-09-08T13:48:08.608Z,100665.41
2023-09-08T13:50:44.180Z,100664.16
2023-09-08T13:53:15.259Z,100672.28
2023-09-08T13:55:50.234Z,100671.06
2023-09-08T13:58:21.331Z,100647.09
2023-09-08T14:00:54.009Z,100652.31
2023-09-08T14:03:29.430Z,100630.22
2023-09-08T14:06:03.092Z,100616.09
2023-09-08T14:11:14.977Z,100626.28
2023-09-08T14:13:50.613Z,100658.09
2023-09-08T14:16:21.716Z,100671.97
2023-09-08T14:18:51.861Z,100681.72
2023-09-08T14:21:22.265Z,100676.19
2023-09-08T14:23:52.178Z,100657.94
2023-09-08T14:26:22.867Z,100646.88
2023-09-08T14:28:52.769Z,100644.78
2023-09-08T14:31:22.855Z,100660.50
2023-09-08T14:33:52.903Z,100657.31
2023-09-08T14:36:23.009Z,100659.19
2023-09-08T14:38:53.089Z,100675.06
2023-09-08T14:41:22.944Z,100664.34
2023-09-08T14:43:53.428Z,100659.59
2023-09-08T14:46:23.437Z,100670.78
2023-09-08T14:48:53.900Z,100684.53
2023-09-08T14:51:23.994Z,100685.06
2023-09-08T14:53:54.473Z,100681.56
2023-09-08T14:56:24.580Z,100684.25
2023-09-08T14:58:55.000Z,100663.31
2023-09-08T15:01:25.072Z,100663.16
2023-09-08T15:03:57.364Z,100667.00
2023-09-08T15:06:28.673Z,100681.31
2023-09-08T15:08:59.285Z,100688.94
2023-09-08T15:11:29.283Z,100676.75
2023-09-08T15:13:59.993Z,100665.59
2023-09-08T15:16:30.531Z,100654.28
2023-09-08T15:19:01.426Z,100654.41
2023-09-08T15:21:32.901Z,100657.97
2023-09-08T15:24:04.367Z,100650.47
2023-09-08T15:26:34.772Z,100644.09
2023-09-08T15:29:06.806Z,100641.34
2023-09-08T15:31:37.213Z,100630.13
2023-09-08T15:34:10.142Z,100624.78
2023-09-08T15:36:40.466Z,100622.63
2023-09-08T15:39:11.359Z,100621.53
2023-09-08T15:41:41.751Z,100622.38
2023-09-08T15:44:12.760Z,100603.78
2023-09-08T15:46:43.529Z,100610.56
2023-09-08T15:49:14.700Z,100609.19
2023-09-08T15:51:45.387Z,100612.97
2023-09-08T15:54:18.633Z,100623.03
2023-09-08T15:56:49.013Z,100617.47
2023-09-08T15:59:19.722Z,100616.72
2023-09-08T16:01:50.206Z,100611.34
2023-09-08T16:04:21.141Z,100616.22
2023-09-08T16:06:52.416Z,100631.34
2023-09-08T16:09:23.224Z,100635.34
2023-09-08T16:11:53.615Z,100626.25
2023-09-08T16:14:24.670Z,100635.81
2023-09-08T16:16:55.132Z,100631.44
2023-09-08T16:19:26.019Z,100633.16
2023-09-08T16:21:56.333Z,100619.50
2023-09-08T16:24:27.156Z,100605.31
2023-09-08T16:27:00.146Z,100602.56
2023-09-08T16:29:32.533Z,100608.41
2023-09-08T16:32:02.862Z,100607.22
2023-09-08T16:34:33.741Z,100597.16
2023-09-08T16:37:04.657Z,100591.00
2023-09-08T16:39:35.645Z,100591.75
2023-09-08T16:42:06.534Z,100588.09
2023-09-08T16:44:37.675Z,100591.47
2023-09-08T16:47:08.048Z,100584.44
2023-09-08T16:49:39.034Z,100566.94
2023-09-08T16:52:09.725Z,100560.13
2023-09-08T16:54:40.467Z,100558.13
2023-09-08T16:57:10.865Z,100563.75
2023-09-08T16:59:41.951Z,100569.44
2023-09-08T17:02:12.375Z,100580.53
2023-09-08T17:04:48.116Z,100585.91
2023-09-08T17:07:18.539Z,100578.69
2023-09-08T17:09:49.498Z,100572.25
2023-09-08T17:12:19.933Z,100569.81
2023-09-08T17:14:50.934Z,100564.28
2023-09-08T17:17:21.305Z,100556.81
2023-09-08T17:19:52.180Z,100556.66
2023-09-08T17:22:22.568Z,100561.25
2023-09-08T17:24:54.027Z,100554.25
2023-09-08T17:27:24.361Z,100557.53
2023-09-08T17:29:55.465Z,100554.75
2023-09-08T17:32:25.795Z,100545.09
2023-09-08T17:34:56.752Z,100523.59
2023-09-08T17:37:27.076Z,100522.63
2023-09-08T17:39:57.920Z,100521.84
2023-09-08T17:42:28.389Z,100532.19
2023-09-08T17:44:59.479Z,100530.66
2023-09-08T17:47:29.893Z,100541.88
2023-09-08T17:50:00.961Z,100543.88
2023-09-08T17:52:31.855Z,100542.75
2023-09-08T17:55:05.951Z,100530.81
2023-09-08T17:57:37.653Z,100530.31
2023-09-08T18:00:09.630Z,100528.84
2023-09-08T18:02:40.098Z,100532.53
2023-09-08T18:05:11.218Z,100527.91
2023-09-08T18:07:41.786Z,100524.34
2023-09-08T18:10:15.538Z,100516.47
2023-09-08T18:12:45.987Z,100519.22
2023-09-08T18:15:17.296Z,100525.88
2023-09-08T18:17:49.710Z,100522.09
2023-09-08T18:20:21.203Z,100516.13
2023-09-08T18:22:54.148Z,100519.75
2023-09-08T18:25:25.358Z,100508.84
2023-09-08T18:27:55.940Z,100508.66
2023-09-08T18:30:26.727Z,100508.28
2023-09-08T18:32:57.149Z,100505.97
2023-09-08T18:35:28.865Z,100492.84
2023-09-08T18:37:59.214Z,100497.94
2023-09-08T18:40:30.061Z,100495.56
2023-09-08T18:43:00.448Z,100494.94
2023-09-08T18:45:31.563Z,100492.06
2023-09-08T18:48:02.035Z,100490.63
2023-09-08T18:50:32.988Z,100497.72
2023-09-08T18:53:03.504Z,100498.31
2023-09-08T18:55:36.274Z,100502.78
2023-09-08T18:58:07.773Z,100507.25
2023-09-08T19:00:38.366Z,100514.72
2023-09-08T19:03:08.826Z,100503.38
2023-09-08T19:05:42.117Z,100505.59
2023-09-08T19:08:12.985Z,100510.91
2023-09-08T19:10:43.762Z,100515.88
2023-09-08T19:13:14.222Z,100525.19
2023-09-08T19:15:45.138Z,100520.81
2023-09-08T19:18:15.583Z,100519.09
2023-09-08T19:20:47.214Z,100521.91
2023-09-08T19:23:17.565Z,100528.16
2023-09-08T19:25:48.683Z,100534.03
2023-09-08T19:28:19.085Z,100547.41
2023-09-08T19:30:52.800Z,100541.19
2023-09-08T19:33:23.330Z,100547.84
2023-09-08T19:35:54.575Z,100554.91
2023-09-08T19:38:25.041Z,100558.19
2023-09-08T19:41:06.254Z,100557.81
2023-09-08T19:43:36.920Z,100561.47
2023-09-08T19:46:08.678Z,100567.06
2023-09-08T19:48:40.104Z,100565.63
2023-09-08T19:51:11.899Z,100575.94
2023-09-08T19:53:42.295Z,100579.28
2023-09-08T19:56:13.248Z,100580.28
2023-09-08T19:58:44.833Z,100584.06
2023-09-08T20:01:16.227Z,100580.63
2023-09-08T20:03:46.947Z,100591.66
2023-09-08T20:06:19.325Z,100584.78
2023-09-08T20:08:49.747Z,100578.44
2023-09-08T20:11:20.971Z,100574.13
2023-09-08T20:13:51.375Z,100575.31
2023-09-08T20:16:22.941Z,100572.50
2023-09-08T20:18:53.536Z,100566.84
2023-09-08T20:21:24.525Z,100563.63
2023-09-08T20:23:55.162Z,100562.34
2023-09-08T20:26:26.441Z,100567.63
2023-09-08T20:28:57.249Z,100560.28
2023-09-08T20:31:28.185Z,100555.03
2023-09-08T20:33:58.515Z,100553.81
2023-09-08T20:36:29.306Z,100552.41
2023-09-08T20:38:59.764Z,100542.31
2023-09-08T20:41:30.733Z,100536.38
2023-09-08T20:44:01.150Z,100550.38
2023-09-08T20:46:32.276Z,100549.59
2023-09-08T20:49:02.756Z,100552.47
2023-09-08T20:51:34.754Z,100561.00
2023-09-08T20:54:05.901Z,100559.19
2023-09-08T20:56:36.664Z,100554.41
2023-09-08T20:59:07.152Z,100553.66
2023-09-08T21:01:38.283Z,100563.13
2023-09-08T21:04:09.868Z,100569.56
2023-09-08T21:06:40.860Z,100578.00
2023-09-08T21:09:11.268Z,100585.03
2023-09-08T21:11:42.045Z,100593.16
2023-09-08T21:14:12.349Z,100595.72
2023-09-08T21:16:43.339Z,100605.56
2023-09-08T21:19:13.687Z,100616.41
2023-09-08T21:21:44.512Z,100616.28
2023-09-08T21:24:14.813Z,100625.72
2023-09-08T21:26:45.734Z,100627.53
2023-09-08T21:29:16.394Z,100613.66
2023-09-08T21:31:51.012Z,100626.84
2023-09-08T21:34:23.378Z,100629.69
2023-09-08T21:36:54.325Z,100630.22
2023-09-08T21:39:24.923Z,100627.91
2023-09-08T21:41:56.580Z,100644.47
2023-09-08T21:44:26.926Z,100649.09
2023-09-08T21:46:58.546Z,100662.66
2023-09-08T21:49:29.176Z,100673.16
2023-09-08T21:52:03.404Z,100668.88
2023-09-08T21:54:33.807Z,100670.47
2023-09-08T21:57:05.871Z,100674.75
2023-09-08T21:59:36.639Z,100680.09
2023-09-08T22:02:08.330Z,100680.28
2023-09-08T22:04:39.551Z,100677.59
2023-09-08T22:07:10.932Z,100680.78
2023-09-08T22:09:41.809Z,100690.25
2023-09-08T22:12:12.601Z,100679.00
2023-09-08T22:14:42.953Z,100676.53
2023-09-08T22:17:13.933Z,100682.38
2023-09-08T22:19:44.186Z,100682.25
2023-09-08T22:22:15.050Z,100693.28
2023-09-08T22:24:45.458Z,100687.38
2023-09-08T22:27:17.000Z,100686.31
2023-09-08T22:29:47.427Z,100693.06
2023-09-08T22:32:18.164Z,100703.63
2023-09-08T22:34:48.546Z,100699.16
2023-09-08T22:37:19.306Z,100707.66
2023-09-08T22:39:49.674Z,100727.06
2023-09-08T22:42:22.905Z,100730.28
2023-09-08T22:44:54.445Z,100728.13
2023-09-08T22:47:26.178Z,100743.44
2023-09-08T22:50:14.243Z,100743.75
2023-09-08T22:52:44.812Z,100749.78
2023-09-08T22:55:25.043Z,100742.97
2023-09-08T22:57:56.974Z,100747.97
2023-09-08T23:00:27.789Z,100750.78
2023-09-08T23:02:58.589Z,100756.66
2023-09-08T23:05:29.410Z,100759.81
2023-09-08T23:07:59.882Z,100758.22
2023-09-08T23:10:30.714Z,100760.03
2023-09-08T23:13:01.162Z,100765.84
2023-09-08T23:15:32.058Z,100758.00
2023-09-08T23:18:02.700Z,100752.09
2023-09-08T23:20:33.530Z,100756.00
2023-09-08T23:23:03.913Z,100756.50
2023-09-08T23:25:34.820Z,100761.28
2023-09-08T23:28:05.376Z,100760.59
2023-09-08T23:30:36.335Z,100762.81
2023-09-08T23:33:07.011Z,100759.13
2023-09-08T23:35:37.834Z,100755.88
2023-09-08T23:38:07.937Z,100760.84
2023-09-08T23:40:40.322Z,100773.59
2023-09-08T23:43:10.735Z,100766.44
2023-09-08T23:45:46.602Z,100764.63
2023-09-08T23:48:18.137Z,100760.69
2023-09-08T23:50:53.870Z,100751.19
2023-09-08T23:53:24.522Z,100733.31
2023-09-08T23:55:55.197Z,100747.63
2023-09-08T23:58:25.932Z,100742.22
